Time;durP1;ratioP1;P1;durP2;ratioP2;P2;SDS_P1;SDS_P2;PMS_P1;PMS_P2;Temp;Humidity;BMP_temperature;BMP_pressure;BME280_temperature;BME280_humidity;BME280_pressure;Samples;Min_cycle;Max_cycle;Signal;HPM_P1;HPM_P2
2023/05/28 00:01:09;;;;;;;3.45;2.30;;;;;;;12.99;100.00;92995.78;5047436;28;20052;-72
2023/05/28 00:03:36;;;;;;;3.28;1.90;;;;;;;13.01;100.00;93002.28;5047723;28;20045;-72
2023/05/28 00:06:06;;;;;;;2.65;1.90;;;;;;;12.94;100.00;93006.81;5047338;28;20072;-72
2023/05/28 00:08:33;;;;;;;3.42;1.95;;;;;;;12.83;100.00;92998.09;5037822;28;20136;-72
2023/05/28 00:11:00;;;;;;;3.30;2.03;;;;;;;12.81;100.00;93000.91;5046947;28;20072;-72
2023/05/28 00:13:28;;;;;;;3.40;2.28;;;;;;;12.76;100.00;92987.91;5047403;28;20053;-72
2023/05/28 00:15:55;;;;;;;3.92;2.60;;;;;;;12.94;100.00;93005.00;5044205;28;20547;-72
2023/05/28 00:18:23;;;;;;;3.65;2.28;;;;;;;13.01;100.00;92999.72;5047081;28;20087;-72
2023/05/28 00:20:50;;;;;;;3.55;2.47;;;;;;;12.97;100.00;93001.19;5047620;28;20128;-72
2023/05/28 00:23:18;;;;;;;3.08;2.10;;;;;;;12.91;100.00;93000.31;5047391;28;20131;-72
2023/05/28 00:25:45;;;;;;;3.88;2.47;;;;;;;12.95;100.00;93003.22;5046959;28;20602;-72
2023/05/28 00:28:12;;;;;;;4.43;2.83;;;;;;;12.79;100.00;92972.00;5047416;28;20060;-72
2023/05/28 00:30:39;;;;;;;3.95;2.15;;;;;;;13.09;100.00;93004.50;5047253;28;20064;-72
2023/05/28 00:33:06;;;;;;;3.00;2.20;;;;;;;13.27;100.00;92997.59;5046987;28;20088;-72
2023/05/28 00:35:32;;;;;;;3.58;2.42;;;;;;;13.23;100.00;92970.69;5047102;28;20051;-72
2023/05/28 00:37:59;;;;;;;3.95;2.40;;;;;;;13.55;100.00;92992.66;5047159;28;20051;-72
2023/05/28 00:40:27;;;;;;;3.70;2.55;;;;;;;13.67;100.00;93002.94;5047084;28;20052;-72
2023/05/28 00:42:54;;;;;;;4.68;2.80;;;;;;;13.76;100.00;93004.13;5046938;28;20107;-72
2023/05/28 00:45:21;;;;;;;3.97;2.38;;;;;;;13.80;100.00;92996.69;5047241;28;20067;-72
2023/05/28 00:47:48;;;;;;;4.40;3.15;;;;;;;13.83;100.00;92991.03;5036580;28;20051;-72
2023/05/28 00:50:16;;;;;;;4.45;3.00;;;;;;;13.89;100.00;92990.13;5040945;28;20052;-72
2023/05/28 00:52:47;;;;;;;4.35;3.00;;;;;;;13.96;100.00;92997.69;5047076;28;20543;-72
2023/05/28 00:55:15;;;;;;;4.72;3.55;;;;;;;13.94;100.00;93000.53;5046232;28;20546;-72
2023/05/28 00:57:45;;;;;;;4.30;3.05;;;;;;;13.99;100.00;92992.81;5046771;28;20049;-72
2023/05/28 01:00:13;;;;;;;4.63;2.85;;;;;;;14.03;100.00;92993.94;5046953;28;20488;-72
2023/05/28 01:02:40;;;;;;;3.83;2.33;;;;;;;13.98;100.00;92995.66;5046571;28;20121;-72
2023/05/28 01:05:09;;;;;;;3.95;2.50;;;;;;;13.87;100.00;92995.50;5046832;28;20053;-72
2023/05/28 01:07:36;;;;;;;4.32;2.67;;;;;;;13.71;100.00;92978.97;5041084;28;20060;-72
2023/05/28 01:10:04;;;;;;;4.22;2.60;;;;;;;13.79;100.00;92974.47;5027305;28;20072;-72
2023/05/28 01:12:31;;;;;;;2.72;1.92;;;;;;;13.72;100.00;92984.94;5037208;28;20052;-72
2023/05/28 01:15:00;;;;;;;3.25;2.20;;;;;;;13.57;100.00;92980.31;5046642;28;20048;-73
2023/05/28 01:17:26;;;;;;;3.85;2.40;;;;;;;13.30;100.00;92962.81;5046205;28;20398;-72
2023/05/28 01:19:53;;;;;;;3.63;2.53;;;;;;;13.43;100.00;92972.84;5046528;28;20037;-72
2023/05/28 01:22:26;;;;;;;3.70;2.20;;;;;;;13.26;100.00;92956.56;5023872;28;20123;-72
2023/05/28 01:24:54;;;;;;;3.67;2.35;;;;;;;13.29;100.00;92971.59;5049682;28;20049;-72
2023/05/28 01:27:21;;;;;;;3.90;2.05;;;;;;;13.18;100.00;92965.44;5050556;28;20486;-72
2023/05/28 01:29:48;;;;;;;4.00;2.00;;;;;;;13.13;100.00;92960.19;5050105;28;20067;-72
2023/05/28 01:32:15;;;;;;;3.25;2.25;;;;;;;13.18;100.00;92963.66;5050556;28;20049;-72
2023/05/28 01:34:42;;;;;;;3.80;2.65;;;;;;;13.23;100.00;92963.75;5050266;28;20095;-72
2023/05/28 01:37:11;;;;;;;3.53;2.28;;;;;;;13.24;100.00;92964.50;5050078;28;20045;-72
2023/05/28 01:39:43;;;;;;;3.33;2.05;;;;;;;13.14;100.00;92959.97;5050005;28;20041;-72
2023/05/28 01:42:12;;;;;;;4.32;2.50;;;;;;;13.19;100.00;92959.31;5050286;28;20053;-72
2023/05/28 01:44:40;;;;;;;3.15;1.83;;;;;;;13.09;100.00;92954.72;5050574;28;20062;-72
2023/05/28 01:47:07;;;;;;;4.35;2.80;;;;;;;12.91;100.00;92955.72;5050239;28;20416;-72
2023/05/28 01:49:35;;;;;;;3.15;1.83;;;;;;;12.90;100.00;92960.06;5050641;28;20056;-72
2023/05/28 01:52:03;;;;;;;3.42;2.33;;;;;;;12.85;100.00;92954.81;5049600;28;20053;-72
2023/05/28 01:54:30;;;;;;;3.85;2.78;;;;;;;12.96;100.00;92959.16;5050535;28;20513;-72
2023/05/28 01:56:57;;;;;;;2.80;2.15;;;;;;;13.01;100.00;92963.59;5049734;28;20057;-72
2023/05/28 01:59:25;;;;;;;3.25;2.15;;;;;;;13.15;100.00;92961.53;5049785;28;20413;-72
2023/05/28 02:01:52;;;;;;;3.50;2.22;;;;;;;13.25;100.00;92955.78;5049923;28;20048;-72
2023/05/28 02:04:19;;;;;;;3.38;2.25;;;;;;;13.30;100.00;92960.25;5049862;28;20099;-72
2023/05/28 02:06:47;;;;;;;3.08;2.25;;;;;;;13.19;100.00;92960.06;5049328;28;20071;-72
2023/05/28 02:09:14;;;;;;;3.50;2.35;;;;;;;13.17;100.00;92967.25;5048302;28;20045;-72
2023/05/28 02:11:40;;;;;;;3.35;2.30;;;;;;;13.17;100.00;92964.69;5049673;28;20045;-72
2023/05/28 02:14:08;;;;;;;2.97;2.22;;;;;;;13.21;100.00;92965.00;5049897;28;20454;-72
2023/05/28 02:16:36;;;;;;;3.03;2.00;;;;;;;13.22;100.00;92966.56;5049807;28;20118;-72
2023/05/28 02:19:03;;;;;;;3.40;2.35;;;;;;;13.32;100.00;92963.34;5049100;28;20541;-72
2023/05/28 02:21:30;;;;;;;3.75;2.10;;;;;;;13.21;100.00;92945.16;5049226;28;20044;-72
2023/05/28 02:23:57;;;;;;;3.20;2.20;;;;;;;13.39;100.00;92958.84;5049447;28;20045;-72
2023/05/28 02:26:25;;;;;;;3.15;2.20;;;;;;;13.43;100.00;92970.25;5049356;28;20114;-72
2023/05/28 02:28:51;;;;;;;3.85;2.67;;;;;;;13.35;100.00;92960.34;5049298;28;20077;-72
2023/05/28 02:31:19;;;;;;;3.67;2.13;;;;;;;13.43;100.00;92964.34;5047470;28;20052;-72
2023/05/28 02:33:47;;;;;;;3.67;2.15;;;;;;;13.43;100.00;92967.69;5035570;28;20052;-72
2023/05/28 02:36:14;;;;;;;3.88;2.28;;;;;;;13.43;100.00;92959.16;5049137;28;20045;-72
2023/05/28 02:38:43;;;;;;;3.15;2.20;;;;;;;13.45;100.00;92975.97;5048797;28;20045;-72
2023/05/28 02:41:10;;;;;;;3.20;2.28;;;;;;;13.46;100.00;92962.09;5048844;28;20401;-72
2023/05/28 02:43:37;;;;;;;3.42;1.77;;;;;;;13.48;100.00;92974.75;5049335;28;20048;-72
2023/05/28 02:46:04;;;;;;;3.88;2.42;;;;;;;13.47;100.00;92971.38;5049132;28;20051;-72
2023/05/28 02:48:31;;;;;;;3.33;2.45;;;;;;;13.43;100.00;92967.69;5049329;28;20045;-72
2023/05/28 02:50:59;;;;;;;3.67;2.30;;;;;;;13.25;100.00;92942.09;5048495;28;20483;-72
2023/05/28 02:53:30;;;;;;;4.00;2.30;;;;;;;13.47;100.00;92966.22;5048647;28;20460;-72
2023/05/28 02:55:57;;;;;;;4.30;2.75;;;;;;;13.41;100.00;92968.91;5023881;28;20051;-72
2023/05/28 02:58:24;;;;;;;4.10;2.67;;;;;;;13.47;100.00;92971.38;5048736;28;20421;-72
2023/05/28 03:00:51;;;;;;;4.22;2.70;;;;;;;13.48;100.00;92974.75;5049002;28;20049;-72
2023/05/28 03:03:18;;;;;;;3.85;2.47;;;;;;;13.52;100.00;92975.84;5039741;28;20600;-72
2023/05/28 03:05:45;;;;;;;3.00;2.40;;;;;;;13.54;100.00;92973.03;5040864;28;20604;-72
2023/05/28 03:08:13;;;;;;;7.10;2.53;;;;;;;13.57;100.00;92970.00;5033992;28;20387;-72
2023/05/28 03:10:39;;;;;;;3.83;2.17;;;;;;;13.45;100.00;92975.97;5048739;28;20138;-72
2023/05/28 03:13:06;;;;;;;4.18;2.83;;;;;;;13.23;100.00;92962.97;5048065;28;20049;-72
2023/05/28 03:15:33;;;;;;;4.40;2.50;;;;;;;13.18;100.00;92966.25;5048572;28;20045;-72
2023/05/28 03:18:00;;;;;;;4.65;2.00;;;;;;;13.18;100.00;92966.25;5048792;28;20045;-72
2023/05/28 03:20:27;;;;;;;4.32;2.30;;;;;;;13.14;100.00;92969.53;5047890;28;20048;-72
2023/05/28 03:22:56;;;;;;;3.92;2.85;;;;;;;12.99;100.00;92975.16;5048317;28;20064;-72
2023/05/28 03:25:25;;;;;;;4.05;2.50;;;;;;;12.99;100.00;92965.66;5048717;28;20085;-72
2023/05/28 03:27:51;;;;;;;5.85;3.28;;;;;;;13.07;100.00;92967.06;5036581;28;20046;-72
2023/05/28 03:30:18;;;;;;;6.93;3.17;;;;;;;13.04;100.00;92967.53;5038465;28;20060;-72
2023/05/28 03:32:45;;;;;;;6.95;3.50;;;;;;;13.12;100.00;92968.94;5047984;28;20048;-73
2023/05/28 03:35:12;;;;;;;4.68;3.38;;;;;;;13.16;100.00;92965.69;5047947;28;20049;-72
2023/05/28 03:37:38;;;;;;;5.07;3.03;;;;;;;13.15;100.00;92956.38;5047656;28;20040;-72
2023/05/28 03:40:08;;;;;;;4.55;2.80;;;;;;;13.20;100.00;92963.44;5048003;28;20057;-72
2023/05/28 03:42:36;;;;;;;3.63;2.22;;;;;;;13.29;100.00;92964.59;5047995;28;20077;-72
2023/05/28 03:45:04;;;;;;;4.22;2.70;;;;;;;13.32;100.00;92965.94;5047994;28;20049;-72
2023/05/28 03:47:32;;;;;;;3.97;3.00;;;;;;;13.26;100.00;92961.72;5047677;28;20377;-72
2023/05/28 03:50:00;;;;;;;4.53;3.22;;;;;;;13.25;100.00;92968.69;5037572;28;20049;-72
2023/05/28 03:52:27;;;;;;;5.20;3.13;;;;;;;13.22;100.00;92967.34;5046675;28;20052;-72
2023/05/28 03:54:54;;;;;;;9.00;3.08;;;;;;;13.26;100.00;92964.28;5042163;28;20119;-72
2023/05/28 03:57:21;;;;;;;4.88;3.35;;;;;;;13.20;100.00;92976.34;5046859;28;20076;-72
2023/05/28 03:59:49;;;;;;;6.00;3.10;;;;;;;13.23;100.00;92968.91;5047334;28;20394;-72
2023/05/28 04:02:16;;;;;;;4.63;3.10;;;;;;;13.30;100.00;92965.41;5046000;28;20072;-72
2023/05/28 04:04:42;;;;;;;5.82;3.30;;;;;;;13.33;100.00;92965.72;5040461;28;20186;-72
2023/05/28 04:07:09;;;;;;;4.68;3.10;;;;;;;13.48;100.00;92964.44;5043526;28;20096;-72
2023/05/28 04:09:36;;;;;;;6.40;3.50;;;;;;;13.65;100.00;92964.44;5040586;28;20498;-72
2023/05/28 04:12:03;;;;;;;5.88;3.55;;;;;;;13.78;100.00;92968.50;5047584;28;20040;-72
2023/05/28 04:14:29;;;;;;;4.95;3.70;;;;;;;13.97;100.00;92969.06;5047679;28;20099;-72
2023/05/28 04:16:58;;;;;;;3.78;2.40;;;;;;;14.01;100.00;92980.47;5047387;28;20049;-72
2023/05/28 04:19:25;;;;;;;3.17;2.33;;;;;;;14.11;100.00;92973.88;5047387;28;20112;-72
2023/05/28 04:21:52;;;;;;;4.57;2.60;;;;;;;14.12;100.00;92968.47;5047611;28;20140;-72
2023/05/28 04:24:18;;;;;;;5.43;2.88;;;;;;;14.14;100.00;92966.47;5047199;28;20051;-72
2023/05/28 04:26:46;;;;;;;4.97;3.00;;;;;;;14.21;100.00;92973.25;5047311;28;20049;-72
2023/05/28 04:29:15;;;;;;;4.20;3.13;;;;;;;14.27;100.00;92974.88;5047167;28;20061;-72
2023/05/28 04:31:43;;;;;;;4.13;2.75;;;;;;;14.27;100.00;92970.47;5046926;28;20053;-73
2023/05/28 04:34:11;;;;;;;4.22;2.42;;;;;;;14.30;100.00;92970.03;5047151;28;20408;-72
2023/05/28 04:36:38;;;;;;;4.25;2.75;;;;;;;14.25;100.00;92964.00;5046918;28;20412;-72
2023/05/28 04:39:05;;;;;;;7.72;3.80;;;;;;;14.32;100.00;92976.75;5047363;28;20053;-72
2023/05/28 04:41:31;;;;;;;3.63;2.58;;;;;;;14.33;100.00;92984.25;5047559;28;20087;-72
2023/05/28 04:43:58;;;;;;;4.45;3.08;;;;;;;14.35;100.00;92966.72;5047216;28;20049;-72
2023/05/28 04:46:25;;;;;;;5.10;2.30;;;;;;;14.24;100.00;92975.34;5046673;28;20470;-72
2023/05/28 04:48:52;;;;;;;4.20;2.78;;;;;;;14.38;100.00;92983.53;5046988;28;20044;-72
2023/05/28 04:51:21;;;;;;;4.20;2.97;;;;;;;14.28;100.00;92985.00;5047091;28;20041;-72
2023/05/28 04:53:47;;;;;;;4.28;2.88;;;;;;;14.36;100.00;92985.59;5046413;28;20145;-72
2023/05/28 04:56:15;;;;;;;4.30;2.78;;;;;;;14.21;100.00;92992.09;5029904;28;20041;-72
2023/05/28 04:58:41;;;;;;;3.47;2.55;;;;;;;14.17;100.00;92988.44;5047310;28;20057;-72
2023/05/28 05:01:08;;;;;;;4.40;2.70;;;;;;;14.10;100.00;92990.41;5046253;28;20045;-72
2023/05/28 05:03:36;;;;;;;6.35;3.22;;;;;;;13.87;100.00;92990.34;5047416;28;20056;-72
2023/05/28 05:06:03;;;;;;;5.43;3.85;;;;;;;13.94;100.00;92987.63;5046982;28;20049;-71
2023/05/28 05:08:31;;;;;;;7.47;2.97;;;;;;;13.98;100.00;92983.53;5046931;28;20053;-72
2023/05/28 05:10:58;;;;;;;4.93;3.13;;;;;;;14.07;100.00;92989.06;5046257;28;20432;-72
2023/05/28 05:13:25;;;;;;;5.00;3.50;;;;;;;14.24;100.00;92988.25;5046699;28;20099;-72
2023/05/28 05:15:52;;;;;;;6.75;3.63;;;;;;;14.31;100.00;92978.56;5046355;28;20625;-72
2023/05/28 05:18:19;;;;;;;4.63;2.63;;;;;;;13.98;100.00;92926.72;5046519;28;20588;-72
2023/05/28 05:20:46;;;;;;;4.32;2.85;;;;;;;14.53;100.00;92986.31;5046552;28;20048;-72
2023/05/28 05:23:12;;;;;;;5.03;2.95;;;;;;;14.74;100.00;92975.44;5046718;28;20048;-72
2023/05/28 05:25:40;;;;;;;4.68;2.92;;;;;;;14.61;100.00;92987.72;5046329;28;20049;-72
2023/05/28 05:28:07;;;;;;;4.93;3.10;;;;;;;14.75;100.00;92985.59;5046486;28;20049;-72
2023/05/28 05:30:34;;;;;;;4.07;2.90;;;;;;;14.70;100.00;92983.69;5046341;28;20098;-72
2023/05/28 05:33:01;;;;;;;4.60;3.05;;;;;;;14.59;100.00;92982.03;5046877;28;20049;-72
2023/05/28 05:35:27;;;;;;;3.90;2.67;;;;;;;14.83;100.00;92982.56;5046277;28;20053;-72
2023/05/28 05:37:54;;;;;;;4.32;2.67;;;;;;;14.55;100.00;92986.09;5046482;28;20413;-72
2023/05/28 05:40:21;;;;;;;4.72;2.97;;;;;;;14.58;100.00;92988.19;5046800;28;20041;-72
2023/05/28 05:42:49;;;;;;;5.07;3.17;;;;;;;14.54;100.00;92990.47;5046341;28;20072;-72
2023/05/28 05:45:16;;;;;;;4.47;2.70;;;;;;;14.43;100.00;92986.19;5046279;28;20081;-72
2023/05/28 05:47:43;;;;;;;4.65;3.08;;;;;;;14.61;100.00;92992.09;5046494;28;20045;-72
2023/05/28 05:50:12;;;;;;;3.78;2.67;;;;;;;14.74;100.00;92978.84;5046268;28;20505;-72
2023/05/28 05:52:40;;;;;;;3.97;2.50;;;;;;;15.00;100.00;92986.88;5046206;28;20087;-72
2023/05/28 05:55:08;;;;;;;3.55;2.80;;;;;;;15.06;100.00;92991.13;5046076;28;20045;-72
2023/05/28 05:57:36;;;;;;;8.25;3.50;;;;;;;15.07;100.00;92978.94;5046173;28;20706;-73
2023/05/28 06:00:05;;;;;;;5.45;3.13;;;;;;;15.40;100.00;92999.69;5046032;28;20045;-73
2023/05/28 06:02:32;;;;;;;5.45;2.90;;;;;;;15.45;100.00;92994.56;5046559;28;20145;-73
2023/05/28 06:04:59;;;;;;;5.63;2.72;;;;;;;15.75;100.00;92982.94;5045927;28;20056;-73
2023/05/28 06:07:26;;;;;;;4.90;2.95;;;;;;;15.77;100.00;92981.66;5047172;28;20051;-73
2023/05/28 06:09:52;;;;;;;3.90;1.90;;;;;;;15.67;100.00;92985.97;5043735;28;20038;-73
2023/05/28 06:12:19;;;;;;;4.38;2.65;;;;;;;15.74;100.00;92989.91;5040318;28;20364;-73
2023/05/28 06:14:47;;;;;;;4.60;2.65;;;;;;;15.57;100.00;92994.44;5049292;28;20095;-73
2023/05/28 06:17:15;;;;;;;3.45;2.35;;;;;;;15.73;100.00;92985.75;5049633;28;20118;-73
2023/05/28 06:19:42;;;;;;;3.60;2.17;;;;;;;15.84;100.00;92989.19;5049341;28;20049;-74
2023/05/28 06:22:12;;;;;;;3.85;2.38;;;;;;;15.95;100.00;92971.19;5049264;28;20049;-73
2023/05/28 06:24:39;;;;;;;3.53;2.17;;;;;;;16.17;100.00;92971.84;5050096;28;20049;-72
2023/05/28 06:27:06;;;;;;;3.20;1.77;;;;;;;15.71;100.00;92964.53;5049664;28;20417;-73
2023/05/28 06:29:33;;;;;;;4.15;2.10;;;;;;;15.65;100.00;92994.00;5049070;28;20068;-72
2023/05/28 06:32:00;;;;;;;4.57;2.38;;;;;;;15.67;100.00;93004.88;5049708;28;20048;-72
2023/05/28 06:34:29;;;;;;;2.80;2.10;;;;;;;15.42;100.00;93010.59;5049584;28;20056;-72
2023/05/28 06:36:56;;;;;;;3.70;2.40;;;;;;;15.18;100.00;93010.91;5049273;28;20057;-72
2023/05/28 06:39:23;;;;;;;3.83;2.42;;;;;;;15.12;100.00;93012.63;5049626;28;20102;-72
2023/05/28 06:41:49;;;;;;;4.35;2.78;;;;;;;15.00;100.00;93004.22;5049331;28;20135;-72
2023/05/28 06:44:16;;;;;;;4.50;3.05;;;;;;;15.03;100.00;93003.72;5049569;28;20045;-72
2023/05/28 06:46:43;;;;;;;5.57;3.40;;;;;;;15.00;100.00;92999.81;5049859;28;20106;-72
2023/05/28 06:49:10;;;;;;;11.80;4.18;;;;;;;15.08;100.00;92996.03;5048983;28;20040;-72
2023/05/28 06:51:38;;;;;;;4.72;3.35;;;;;;;14.80;100.00;92993.41;5049295;28;20408;-72
2023/05/28 06:54:04;;;;;;;5.50;3.65;;;;;;;15.01;100.00;92996.22;5048947;28;20049;-72
2023/05/28 06:56:31;;;;;;;5.50;3.08;;;;;;;14.69;100.00;92999.44;5049190;28;20099;-72
2023/05/28 06:58:58;;;;;;;5.43;3.33;;;;;;;14.78;100.00;92994.66;5049108;28;20119;-72
2023/05/28 07:01:25;;;;;;;4.25;2.70;;;;;;;14.67;100.00;92996.31;5048956;28;20165;-72
2023/05/28 07:03:51;;;;;;;6.60;3.88;;;;;;;14.55;100.00;93002.38;5049191;28;20045;-71
2023/05/28 07:06:18;;;;;;;5.65;3.22;;;;;;;14.21;100.00;93002.44;5044801;28;20426;-72
2023/05/28 07:08:46;;;;;;;5.40;3.70;;;;;;;14.13;100.00;92993.28;5046764;28;20753;-72
2023/05/28 07:11:13;;;;;;;6.03;3.78;;;;;;;14.24;100.00;93003.75;5045915;28;20057;-72
2023/05/28 07:13:40;;;;;;;5.45;3.53;;;;;;;14.30;100.00;92998.44;5037117;28;20068;-72
2023/05/28 07:16:08;;;;;;;5.90;3.67;;;;;;;14.25;100.00;92993.19;5039559;28;20464;-72
2023/05/28 07:18:35;;;;;;;4.70;3.00;;;;;;;14.47;100.00;92992.47;5045430;28;20049;-72
2023/05/28 07:21:02;;;;;;;4.80;3.40;;;;;;;14.86;100.00;92998.63;5049642;28;20390;-72
2023/05/28 07:23:29;;;;;;;4.65;2.97;;;;;;;15.07;100.00;92997.06;5048917;28;20060;-72
2023/05/28 07:25:57;;;;;;;5.57;3.35;;;;;;;15.19;100.00;92997.69;5048705;28;20045;-72
2023/05/28 07:28:24;;;;;;;5.40;3.10;;;;;;;15.20;100.00;92991.50;5048538;28;20406;-72
2023/05/28 07:30:51;;;;;;;4.00;2.65;;;;;;;15.50;100.00;92998.00;5048485;28;20091;-72
2023/05/28 07:33:17;;;;;;;5.82;2.83;;;;;;;15.77;100.00;92996.41;5047785;28;20045;-72
2023/05/28 07:35:44;;;;;;;5.00;2.75;;;;;;;15.73;100.00;92987.56;5048371;28;20510;-72
2023/05/28 07:38:12;;;;;;;4.05;2.67;;;;;;;15.82;100.00;92985.28;5048177;28;20132;-72
2023/05/28 07:40:39;;;;;;;4.97;2.78;;;;;;;15.81;100.00;92988.91;5048129;28;20045;-72
2023/05/28 07:43:07;;;;;;;4.65;2.67;;;;;;;15.90;100.00;92985.66;5047945;28;20049;-72
2023/05/28 07:45:34;;;;;;;3.10;2.00;;;;;;;15.72;100.00;92988.59;5048199;28;20049;-72
2023/05/28 07:48:01;;;;;;;2.90;1.58;;;;;;;15.79;100.00;92983.22;5048223;28;20059;-72
2023/05/28 07:50:28;;;;;;;3.15;1.92;;;;;;;16.02;100.00;92987.31;5048136;28;20060;-72
2023/05/28 07:52:55;;;;;;;3.25;2.10;;;;;;;16.09;100.00;92993.03;5047878;28;20159;-72
2023/05/28 07:55:22;;;;;;;2.60;1.50;;;;;;;16.08;100.00;92994.06;5047643;28;20114;-72
2023/05/28 07:57:49;;;;;;;2.42;1.30;;;;;;;15.85;100.00;92995.16;5047796;28;20390;-72
2023/05/28 08:00:17;;;;;;;2.13;1.40;;;;;;;15.48;100.00;92991.50;5047117;28;20090;-72
2023/05/28 08:02:44;;;;;;;3.97;1.77;;;;;;;15.20;100.00;93001.88;5047819;28;20091;-72
2023/05/28 08:05:11;;;;;;;2.90;1.63;;;;;;;15.31;100.00;92989.78;5047736;28;20379;-73
2023/05/28 08:07:38;;;;;;;3.42;1.80;;;;;;;15.52;100.00;92984.03;5047473;28;20053;-73
2023/05/28 08:10:05;;;;;;;3.10;1.58;;;;;;;15.59;100.00;92984.59;5046852;28;20044;-73
2023/05/28 08:12:32;;;;;;;3.95;1.70;;;;;;;15.85;100.00;92988.19;5047981;28;20056;-73
2023/05/28 08:14:59;;;;;;;2.70;1.73;;;;;;;15.95;100.00;92991.91;5047244;28;20103;-72
2023/05/28 08:17:31;;;;;;;2.80;1.55;;;;;;;15.99;100.00;92978.22;5047412;28;20093;-72
2023/05/28 08:19:57;;;;;;;3.83;1.60;;;;;;;16.27;100.00;92998.84;5046981;28;20124;-72
2023/05/28 08:22:24;;;;;;;1.83;1.40;;;;;;;16.25;100.00;92995.75;5047394;28;20040;-73
2023/05/28 08:24:51;;;;;;;4.88;1.98;;;;;;;16.69;100.00;92994.66;5046889;28;20091;-73
2023/05/28 08:27:18;;;;;;;3.88;1.60;;;;;;;16.77;100.00;93001.97;5047804;28;20427;-73
2023/05/28 08:29:44;;;;;;;3.47;1.92;;;;;;;16.90;100.00;93002.53;5046710;28;20501;-73
2023/05/28 08:32:11;;;;;;;3.58;1.95;;;;;;;16.46;100.00;93006.22;5046983;28;20060;-73
2023/05/28 08:34:40;;;;;;;4.75;2.55;;;;;;;16.33;100.00;93008.22;5046979;28;20045;-73
2023/05/28 08:37:07;;;;;;;2.88;1.65;;;;;;;15.86;100.00;93002.69;5047274;28;20079;-73
2023/05/28 08:39:34;;;;;;;2.80;1.90;;;;;;;15.55;100.00;93009.44;5046753;28;20041;-73
2023/05/28 08:42:01;;;;;;;2.70;1.70;;;;;;;15.42;100.00;93008.00;5047247;28;20407;-73
2023/05/28 08:44:28;;;;;;;2.95;1.70;;;;;;;15.02;100.00;93007.34;5047235;28;20072;-73
2023/05/28 08:46:56;;;;;;;3.00;1.48;;;;;;;15.18;100.00;93008.31;5047214;28;20421;-73
2023/05/28 08:49:31;;;;;;;5.13;1.88;;;;;;;14.94;100.00;93001.59;5047219;28;20057;-73
2023/05/28 08:52:01;;;;;;;2.75;1.67;;;;;;;15.02;100.00;93005.56;5046890;28;20049;-73
2023/05/28 08:54:29;;;;;;;3.15;1.80;;;;;;;15.27;100.00;92998.31;5047009;28;20052;-73
2023/05/28 08:56:56;;;;;;;3.60;2.15;;;;;;;15.08;100.00;93003.78;5046872;28;20052;-73
2023/05/28 08:59:25;;;;;;;2.97;1.80;;;;;;;15.13;100.00;93003.84;5046870;28;20053;-73
2023/05/28 09:01:52;;;;;;;4.30;2.47;;;;;;;15.15;100.00;92968.19;5047297;28;20051;-72
2023/05/28 09:04:19;;;;;;;6.07;2.85;;;;;;;15.23;100.00;92996.19;5046724;28;20087;-72
2023/05/28 09:06:45;;;;;;;2.90;1.40;;;;;;;15.16;100.00;92982.66;5032627;28;20096;-73
2023/05/28 09:09:14;;;;;;;2.80;1.48;;;;;;;15.44;100.00;93006.75;5042703;28;20091;-73
2023/05/28 09:11:40;;;;;;;2.03;1.40;;;;;;;15.50;100.00;93002.38;5046560;28;20509;-72
2023/05/28 09:14:11;;;;;;;3.40;1.83;;;;;;;15.68;100.00;93000.47;5046452;28;20485;-72
2023/05/28 09:16:41;;;;;;;2.83;1.55;;;;;;;15.98;100.00;93001.78;5046698;28;20550;-72
2023/05/28 09:19:08;;;;;;;2.60;1.27;;;;;;;15.92;100.00;93006.09;5046542;28;20041;-73
2023/05/28 09:21:36;;;;;;;2.85;1.67;;;;;;;15.85;100.00;93001.13;5046305;28;20049;-73
2023/05/28 09:24:03;;;;;;;2.38;1.20;;;;;;;15.94;100.00;93000.69;5046707;28;20041;-73
2023/05/28 09:26:32;;;;;;;2.20;1.00;;;;;;;16.05;100.00;93004.94;5046539;28;20126;-73
2023/05/28 09:28:59;;;;;;;2.20;1.33;;;;;;;15.84;100.00;92996.19;5046530;28;20044;-73
2023/05/28 09:31:32;;;;;;;3.10;1.45;;;;;;;16.10;100.00;93002.38;5046771;28;20057;-73
2023/05/28 09:34:02;;;;;;;2.40;1.33;;;;;;;15.90;100.00;92985.66;5046406;28;20136;-73
2023/05/28 09:36:30;;;;;;;2.67;1.40;;;;;;;16.14;100.00;92987.09;5046415;28;20056;-73
2023/05/28 09:38:57;;;;;;;2.15;1.20;;;;;;;16.30;100.00;92985.41;5033354;28;20037;-73
2023/05/28 09:41:24;;;;;;;2.63;1.48;;;;;;;16.42;100.00;92991.16;5047038;28;20434;-73
2023/05/28 09:43:59;;;;;;;4.05;1.42;;;;;;;16.36;100.00;92988.78;5025148;28;20114;-73
2023/05/28 09:46:30;;;;;;;3.50;2.23;;;;;;;16.32;100.00;92985.94;5050212;28;20056;-73
2023/05/28 09:48:57;;;;;;;5.43;1.75;;;;;;;15.95;100.00;92994.50;5050282;28;20128;-73
2023/05/28 09:51:28;;;;;;;2.95;1.50;;;;;;;15.91;100.00;92970.88;5050226;28;20052;-73
2023/05/28 09:53:58;;;;;;;2.38;1.23;;;;;;;16.29;100.00;92992.38;5049805;28;20481;-73
2023/05/28 09:56:29;;;;;;;2.85;1.20;;;;;;;16.40;100.00;92992.44;5050332;28;20484;-74
2023/05/28 09:58:58;;;;;;;1.90;1.10;;;;;;;16.20;100.00;93001.66;5050189;28;20099;-73
2023/05/28 10:01:28;;;;;;;2.78;1.70;;;;;;;16.44;100.00;92996.09;5049700;28;20060;-74
2023/05/28 10:04:02;;;;;;;2.33;1.30;;;;;;;16.41;100.00;92992.22;5050460;28;20049;-73
2023/05/28 10:06:31;;;;;;;2.63;1.52;;;;;;;16.37;100.00;92967.81;5049134;28;20119;-73
2023/05/28 10:09:02;;;;;;;2.85;1.92;;;;;;;16.17;100.00;92996.97;5050018;28;20055;-73
2023/05/28 10:11:35;;;;;;;3.05;1.80;;;;;;;16.14;100.00;92990.50;5049942;28;20083;-73
2023/05/28 10:14:04;;;;;;;3.45;1.90;;;;;;;16.29;100.00;92994.97;5050043;28;20049;-73
2023/05/28 10:16:32;;;;;;;4.40;2.22;;;;;;;16.30;100.00;92993.94;5049301;28;20508;-73
2023/05/28 10:18:59;;;;;;;3.70;2.03;;;;;;;16.26;100.00;92994.72;5050341;28;20045;-73
2023/05/28 10:21:26;;;;;;;4.03;2.05;;;;;;;16.38;100.00;92999.72;5049193;28;20057;-73
2023/05/28 10:23:53;;;;;;;3.95;1.88;;;;;;;16.03;100.00;92994.81;5049387;28;20049;-74
2023/05/28 10:26:21;;;;;;;4.78;2.78;;;;;;;15.74;100.00;92995.09;5049352;28;20041;-73
2023/05/28 10:28:54;;;;;;;3.70;2.55;;;;;;;15.71;100.00;92987.03;5049422;28;20124;-73
2023/05/28 10:31:24;;;;;;;3.10;1.45;;;;;;;15.76;100.00;92981.91;5044342;28;20482;-73
2023/05/28 10:33:51;;;;;;;4.55;2.20;;;;;;;16.05;100.00;92979.03;5041830;28;20119;-73
2023/05/28 10:36:18;;;;;;;2.17;1.35;;;;;;;16.26;100.00;92992.88;5049629;28;20045;-74
2023/05/28 10:38:46;;;;;;;2.30;1.58;;;;;;;16.42;100.00;92985.19;5049630;28;20060;-74
2023/05/28 10:41:19;;;;;;;3.72;2.28;;;;;;;16.80;100.00;92987.72;5023007;28;20063;-74
2023/05/28 10:43:46;;;;;;;4.18;1.92;;;;;;;16.63;100.00;92991.28;5048770;28;20557;-74
2023/05/28 10:46:16;;;;;;;2.63;1.90;;;;;;;16.59;100.00;92984.25;5049464;28;20456;-74
2023/05/28 10:49:09;;;;;;;4.90;2.05;;;;;;;16.42;100.00;92983.41;5049314;28;20045;-74
2023/05/28 10:51:56;;;;;;;3.30;1.80;;;;;;;16.12;100.00;92987.34;5049473;28;20130;-74
2023/05/28 10:54:38;;;;;;;4.10;2.00;;;;;;;15.98;100.00;92981.81;5049057;28;20409;-74
2023/05/28 10:57:10;;;;;;;3.63;2.20;;;;;;;16.24;100.00;92987.19;5046832;28;20123;-73
2023/05/28 10:59:59;;;;;;;3.10;2.15;;;;;;;16.40;100.00;92977.66;5049126;28;20057;-74
2023/05/28 11:02:27;;;;;;;2.50;1.67;;;;;;;16.47;100.00;92981.88;5049026;28;20045;-74
2023/05/28 11:04:56;;;;;;;2.95;1.67;;;;;;;16.70;100.00;92971.06;5048340;28;20049;-74
2023/05/28 11:07:29;;;;;;;3.35;1.45;;;;;;;17.08;100.00;92978.75;5049372;28;20509;-74
2023/05/28 11:09:58;;;;;;;3.15;1.75;;;;;;;17.55;100.00;92975.47;5049014;28;20505;-74
2023/05/28 11:12:27;;;;;;;3.05;1.63;;;;;;;17.66;100.00;92979.63;5048955;28;20048;-74
2023/05/28 11:14:54;;;;;;;4.22;1.92;;;;;;;17.98;100.00;92967.41;5048980;28;20045;-74
2023/05/28 11:17:22;;;;;;;3.83;1.58;;;;;;;17.92;100.00;92981.44;5048605;28;20045;-74
2023/05/28 11:19:50;;;;;;;3.70;1.83;;;;;;;17.42;100.00;92972.34;5048505;28;20136;-74
2023/05/28 11:22:19;;;;;;;2.90;1.50;;;;;;;17.30;100.00;92967.38;5048670;28;20468;-73
2023/05/28 11:25:00;;;;;;;2.47;1.52;;;;;;;17.67;100.00;92965.59;5048559;28;20807;-74
2023/05/28 11:27:29;;;;;;;3.03;2.08;;;;;;;17.81;100.00;92975.47;5048556;28;20080;-74